^^
Saratoga-Weather Station Historical Data
Daily Summary for August 3, 2020 Units:  Both    English   Metric
Daily Weekly Monthly Yearly Custom
  High: Low: Average:
Temperature: 54.5 °F /  12.5 °C 43.7 °F /  6.5 °C 50 °F /  10 °C
Dew Point: 50.2 °F /  10.1 °C 39.6 °F /  4.2 °C 45.7 °F /  7.6 °C
Humidity: 91% 70% 86%
Wind Speed: 8.9mph /  14.3km/h - 1.9mph /  3km/h
Wind Gust: 12mph /  19.3km/h - -
Wind- - West
Pressure: 30.3 in /  1027.4 hPa 30.1 in /  1019.6 hPa -
Precipitation: 0.02 in /  0.5 mm    
Historical Graphs
 
 
Tabular Data for August 3, 2020
Time Temperature Dew Point Pressure Wind Wind Speed Wind Gust Humidity Rainfall Rate (Hourly) solar
00:00 53.1 °F /  11.7 °C 50.2 °F /  10.1 °C 30.1in /  1019.6hPa West 2.9mph /  4.7km/h 5mph /  8km/h 90% 0in /  0.0mm 0 W/m2
00:05 52.9 °F /  11.6 °C 49.6 °F /  9.8 °C 30.1in /  1019.6hPa WSW 2.9mph /  4.7km/h 6mph /  9.7km/h 89% 0in /  0.0mm 0 W/m2
00:10 52.9 °F /  11.6 °C 49.5 °F /  9.7 °C 30.1in /  1019.6hPa West 2.9mph /  4.7km/h 6mph /  9.7km/h 88% 0in /  0.0mm 0 W/m2
00:15 52.7 °F /  11.5 °C 49.3 °F /  9.6 °C 30.1in /  1020.0hPa West 2.9mph /  4.7km/h 6mph /  9.7km/h 88% 0in /  0.0mm 0 W/m2
00:20 52.5 °F /  11.4 °C 49.1 °F /  9.5 °C 30.1in /  1020.0hPa WNW 2.9mph /  4.7km/h 9mph /  14.5km/h 88% 0in /  0.0mm 0 W/m2
00:25 52.5 °F /  11.4 °C 49.1 °F /  9.5 °C 30.1in /  1020.0hPa WSW 4mph /  6.4km/h 5mph /  8km/h 88% 0in /  0.0mm 0 W/m2
00:30 52.5 °F /  11.4 °C 49.1 °F /  9.5 °C 30.1in /  1020.0hPa WNW 4mph /  6.4km/h 7mph /  11.3km/h 88% 0in /  0.0mm 0 W/m2
00:35 52.3 °F /  11.3 °C 48.9 °F /  9.4 °C 30.1in /  1020.0hPa West 4mph /  6.4km/h 5mph /  8km/h 88% 0in /  0.0mm 0 W/m2
00:40 52.3 °F /  11.3 °C 48.9 °F /  9.4 °C 30.1in /  1020.0hPa West 2mph /  3.2km/h 4mph /  6.4km/h 88% 0in /  0.0mm 0 W/m2
00:45 52.3 °F /  11.3 °C 48.9 °F /  9.4 °C 30.1in /  1020.0hPa SW 2mph /  3.2km/h 6mph /  9.7km/h 88% 0in /  0.0mm 0 W/m2
00:50 52.3 °F /  11.3 °C 48.9 °F /  9.4 °C 30.1in /  1020.0hPa WSW 2mph /  3.2km/h 6mph /  9.7km/h 88% 0in /  0.0mm 0 W/m2
00:55 52.3 °F /  11.3 °C 48.9 °F /  9.4 °C 30.1in /  1020.3hPa West 2.9mph /  4.7km/h 8mph /  12.9km/h 88% 0in /  0.0mm 0 W/m2
01:00 52.3 °F /  11.3 °C 48.9 °F /  9.4 °C 30.1in /  1020.3hPa WNW 2.9mph /  4.7km/h 6mph /  9.7km/h 88% 0in /  0.0mm 0 W/m2
01:05 52.3 °F /  11.3 °C 48.9 °F /  9.4 °C 30.1in /  1020.7hPa WNW 2mph /  3.2km/h 4mph /  6.4km/h 88% 0in /  0.0mm 0 W/m2
01:10 52.3 °F /  11.3 °C 48.9 °F /  9.4 °C 30.1in /  1020.7hPa West 2mph /  3.2km/h 5mph /  8km/h 88% 0in /  0.0mm 0 W/m2
01:15 52.3 °F /  11.3 °C 48.6 °F /  9.2 °C 30.1in /  1020.7hPa WNW 4.9mph /  7.9km/h 9mph /  14.5km/h 87% 0in /  0.0mm 0 W/m2
01:20 52.3 °F /  11.3 °C 48.6 °F /  9.2 °C 30.1in /  1020.7hPa NW 4mph /  6.4km/h 4mph /  6.4km/h 87% 0in /  0.0mm 0 W/m2
01:25 52.3 °F /  11.3 °C 48.6 °F /  9.2 °C 30.1in /  1020.7hPa West 2mph /  3.2km/h 9mph /  14.5km/h 87% 0in /  0.0mm 0 W/m2
01:30 52.2 °F /  11.2 °C 48.4 °F /  9.1 °C 30.1in /  1020.7hPa West 2mph /  3.2km/h 4mph /  6.4km/h 87% 0in /  0.0mm 0 W/m2
01:35 52.2 °F /  11.2 °C 48.4 °F /  9.1 °C 30.1in /  1020.7hPa West 2mph /  3.2km/h 8mph /  12.9km/h 87% 0in /  0.0mm 0 W/m2
01:40 52.2 °F /  11.2 °C 48.4 °F /  9.1 °C 30.1in /  1020.7hPa West 2mph /  3.2km/h 7mph /  11.3km/h 87% 0in /  0.0mm 0 W/m2
01:45 52.2 °F /  11.2 °C 48.4 °F /  9.1 °C 30.1in /  1020.7hPa WSW 2.9mph /  4.7km/h 8mph /  12.9km/h 87% 0in /  0.0mm 0 W/m2
01:50 52.2 °F /  11.2 °C 48.4 °F /  9.1 °C 30.1in /  1020.7hPa WSW 2mph /  3.2km/h 7mph /  11.3km/h 87% 0in /  0.0mm 0 W/m2
01:55 52.2 °F /  11.2 °C 48.4 °F /  9.1 °C 30.2in /  1021.0hPa WNW 2.9mph /  4.7km/h 3mph /  4.8km/h 87% 0in /  0.0mm 0 W/m2
02:00 52.2 °F /  11.2 °C 48.4 °F /  9.1 °C 30.2in /  1021.0hPa WNW 0.9mph /  1.4km/h 7mph /  11.3km/h 87% 0in /  0.0mm 0 W/m2
02:05 52 °F /  11.1 °C 48.2 °F /  9 °C 30.2in /  1021.0hPa WNW 0.9mph /  1.4km/h 2mph /  3.2km/h 87% 0in /  0.0mm 0 W/m2
02:10 52 °F /  11.1 °C 48.2 °F /  9 °C 30.2in /  1021.3hPa West 0.9mph /  1.4km/h 4mph /  6.4km/h 87% 0in /  0.0mm 0 W/m2
02:15 52 °F /  11.1 °C 48.6 °F /  9.2 °C 30.2in /  1021.0hPa Calm     88% 0in /  0.0mm 0 W/m2
02:20 52 °F /  11.1 °C 48.6 °F /  9.2 °C 30.2in /  1021.0hPa Calm   4mph /  6.4km/h 88% 0in /  0.0mm 0 W/m2
02:25 51.8 °F /  11 °C 48.7 °F /  9.3 °C 30.2in /  1021.0hPa Calm   2mph /  3.2km/h 89% 0in /  0.0mm 0 W/m2
02:30 51.6 °F /  10.9 °C 48.7 °F /  9.3 °C 30.2in /  1021.3hPa WSW 0.9mph /  1.4km/h 1mph /  1.6km/h 90% 0in /  0.0mm 0 W/m2
02:35 51.4 °F /  10.8 °C 48.6 °F /  9.2 °C 30.2in /  1021.3hPa Calm   1mph /  1.6km/h 90% 0in /  0.0mm 0 W/m2
02:40 51.4 °F /  10.8 °C 48.6 °F /  9.2 °C 30.2in /  1021.7hPa Calm   1mph /  1.6km/h 90% 0in /  0.0mm 0 W/m2
02:45 51.3 °F /  10.7 °C 48.4 °F /  9.1 °C 30.2in /  1021.7hPa Calm   2mph /  3.2km/h 90% 0in /  0.0mm 0 W/m2
02:50 51.3 °F /  10.7 °C 48.7 °F /  9.3 °C 30.2in /  1021.7hPa Calm   1mph /  1.6km/h 91% 0in /  0.0mm 0 W/m2
02:55 51.3 °F /  10.7 °C 48.7 °F /  9.3 °C 30.2in /  1021.3hPa Calm   1mph /  1.6km/h 91% 0in /  0.0mm 0 W/m2
03:00 51.3 °F /  10.7 °C 48.7 °F /  9.3 °C 30.2in /  1021.7hPa West 0.9mph /  1.4km/h 3mph /  4.8km/h 91% 0in /  0.0mm 0 W/m2
03:05 51.3 °F /  10.7 °C 48.7 °F /  9.3 °C 30.2in /  1021.3hPa Calm   3mph /  4.8km/h 91% 0in /  0.0mm 0 W/m2
03:10 51.3 °F /  10.7 °C 48.7 °F /  9.3 °C 30.2in /  1022.0hPa Calm   2mph /  3.2km/h 91% 0in /  0.0mm 0 W/m2
03:15 51.3 °F /  10.7 °C 48.7 °F /  9.3 °C 30.2in /  1021.7hPa WNW 0.9mph /  1.4km/h 3mph /  4.8km/h 91% 0in /  0.0mm 0 W/m2
03:20 51.3 °F /  10.7 °C 48.7 °F /  9.3 °C 30.2in /  1022.0hPa Calm   4mph /  6.4km/h 91% 0in /  0.0mm 0 W/m2
03:26 51.3 °F /  10.7 °C 48.7 °F /  9.3 °C 30.2in /  1021.7hPa WNW 0.9mph /  1.4km/h 2mph /  3.2km/h 91% 0in /  0.0mm 0 W/m2
03:31 51.3 °F /  10.7 °C 48.4 °F /  9.1 °C 30.2in /  1021.7hPa SW 2.9mph /  4.7km/h 4mph /  6.4km/h 90% 0in /  0.0mm 0 W/m2
03:36 51.3 °F /  10.7 °C 48.4 °F /  9.1 °C 30.2in /  1021.7hPa Calm   2mph /  3.2km/h 90% 0in /  0.0mm 0 W/m2
03:41 51.3 °F /  10.7 °C 48.4 °F /  9.1 °C 30.2in /  1022.0hPa WSW 0.9mph /  1.4km/h 3mph /  4.8km/h 90% 0in /  0.0mm 0 W/m2
03:46 51.3 °F /  10.7 °C 48.4 °F /  9.1 °C 30.2in /  1022.0hPa WNW 0.9mph /  1.4km/h 2mph /  3.2km/h 90% 0in /  0.0mm 0 W/m2
03:51 51.3 °F /  10.7 °C 48.4 °F /  9.1 °C 30.2in /  1022.0hPa WNW 2mph /  3.2km/h 3mph /  4.8km/h 90% 0in /  0.0mm 0 W/m2
03:56 51.3 °F /  10.7 °C 48.4 °F /  9.1 °C 30.2in /  1021.3hPa Calm   2mph /  3.2km/h 90% 0in /  0.0mm 0 W/m2
04:01 51.3 °F /  10.7 °C 48.4 °F /  9.1 °C 30.2in /  1021.3hPa WNW 0.9mph /  1.4km/h 3mph /  4.8km/h 90% 0in /  0.0mm 0 W/m2
04:06 51.3 °F /  10.7 °C 48.4 °F /  9.1 °C 30.2in /  1021.7hPa West 0.9mph /  1.4km/h 4mph /  6.4km/h 90% 0in /  0.0mm 0 W/m2
04:11 51.3 °F /  10.7 °C 48.2 °F /  9 °C 30.2in /  1021.3hPa SSW 2mph /  3.2km/h 2mph /  3.2km/h 89% 0in /  0.0mm 0 W/m2
04:16 51.3 °F /  10.7 °C 48.2 °F /  9 °C 30.2in /  1022.4hPa WNW 2mph /  3.2km/h 4mph /  6.4km/h 89% 0in /  0.0mm 0 W/m2
04:21 51.3 °F /  10.7 °C 48.2 °F /  9 °C 30.2in /  1022.0hPa WNW 2mph /  3.2km/h 3mph /  4.8km/h 89% 0in /  0.0mm 0 W/m2
04:26 51.3 °F /  10.7 °C 48.2 °F /  9 °C 30.2in /  1021.7hPa Calm     89% 0in /  0.0mm 0 W/m2
04:31 51.3 °F /  10.7 °C 48.2 °F /  9 °C 30.2in /  1021.3hPa Calm   3mph /  4.8km/h 89% 0in /  0.0mm 0 W/m2
04:36 51.1 °F /  10.6 °C 48.2 °F /  9 °C 30.2in /  1022.0hPa WSW 2.9mph /  4.7km/h 4mph /  6.4km/h 90% 0in /  0.0mm 0 W/m2
04:42 51.1 °F /  10.6 °C 48.2 °F /  9 °C 30.2in /  1021.7hPa Calm   1mph /  1.6km/h 90% 0in /  0.0mm 0 W/m2
04:47 51.1 °F /  10.6 °C 48.2 °F /  9 °C 30.2in /  1021.7hPa WSW 0.9mph /  1.4km/h 2mph /  3.2km/h 90% 0in /  0.0mm 0 W/m2
04:52 50.9 °F /  10.5 °C 48 °F /  8.9 °C 30.2in /  1021.7hPa Calm   3mph /  4.8km/h 90% 0in /  0.0mm 0 W/m2
04:57 50.9 °F /  10.5 °C 48 °F /  8.9 °C 30.2in /  1022.0hPa Calm   2mph /  3.2km/h 90% 0in /  0.0mm 0 W/m2
05:02 50.7 °F /  10.4 °C 47.8 °F /  8.8 °C 30.2in /  1022.0hPa WNW 2mph /  3.2km/h 3mph /  4.8km/h 90% 0in /  0.0mm 0 W/m2
05:07 50.7 °F /  10.4 °C 47.8 °F /  8.8 °C 30.2in /  1021.7hPa Calm   3mph /  4.8km/h 90% 0in /  0.0mm 0 W/m2
05:12 50.7 °F /  10.4 °C 47.8 °F /  8.8 °C 30.2in /  1022.0hPa West 2mph /  3.2km/h 3mph /  4.8km/h 90% 0in /  0.0mm 0 W/m2
05:17 50.7 °F /  10.4 °C 47.8 °F /  8.8 °C 30.2in /  1022.0hPa West 2.9mph /  4.7km/h 3mph /  4.8km/h 90% 0in /  0.0mm 0 W/m2
05:22 50.7 °F /  10.4 °C 47.7 °F /  8.7 °C 30.2in /  1022.0hPa WSW 2mph /  3.2km/h 4mph /  6.4km/h 89% 0in /  0.0mm 0 W/m2
05:27 50.7 °F /  10.4 °C 47.7 °F /  8.7 °C 30.2in /  1022.0hPa WSW 2mph /  3.2km/h 3mph /  4.8km/h 89% 0in /  0.0mm 0 W/m2
05:32 50.5 °F /  10.3 °C 47.5 °F /  8.6 °C 30.2in /  1022.0hPa WSW 0.9mph /  1.4km/h 3mph /  4.8km/h 89% 0in /  0.0mm 0 W/m2
05:37 50.5 °F /  10.3 °C 47.5 °F /  8.6 °C 30.2in /  1022.4hPa WSW 2.9mph /  4.7km/h 3mph /  4.8km/h 89% 0in /  0.0mm 0 W/m2
05:42 50.4 °F /  10.2 °C 47.3 °F /  8.5 °C 30.2in /  1022.0hPa Calm   3mph /  4.8km/h 89% 0in /  0.0mm 0 W/m2
05:47 50.4 °F /  10.2 °C 47.3 °F /  8.5 °C 30.2in /  1022.0hPa West 0.9mph /  1.4km/h 2mph /  3.2km/h 89% 0in /  0.0mm 0 W/m2
05:52 50.4 °F /  10.2 °C 47.3 °F /  8.5 °C 30.2in /  1022.0hPa WSW 2mph /  3.2km/h 4mph /  6.4km/h 89% 0in /  0.0mm 0 W/m2
05:57 50.2 °F /  10.1 °C 47.1 °F /  8.4 °C 30.2in /  1022.0hPa WSW 0.9mph /  1.4km/h 2mph /  3.2km/h 89% 0in /  0.0mm 0 W/m2
06:02 50.2 °F /  10.1 °C 47.1 °F /  8.4 °C 30.2in /  1022.0hPa West 2.9mph /  4.7km/h 6mph /  9.7km/h 89% 0in /  0.0mm 0 W/m2
06:07 50.2 °F /  10.1 °C 47.1 °F /  8.4 °C 30.2in /  1022.0hPa West 0.9mph /  1.4km/h 4mph /  6.4km/h 89% 0in /  0.0mm 0 W/m2
06:12 50.2 °F /  10.1 °C 47.1 °F /  8.4 °C 30.2in /  1022.0hPa West 4mph /  6.4km/h 4mph /  6.4km/h 89% 0in /  0.0mm 0 W/m2
06:17 50 °F /  10 °C 46.9 °F /  8.3 °C 30.2in /  1022.0hPa West 2.9mph /  4.7km/h 3mph /  4.8km/h 89% 0in /  0.0mm 0 W/m2
06:22 49.8 °F /  9.9 °C 46.8 °F /  8.2 °C 30.2in /  1022.4hPa West 2mph /  3.2km/h 4mph /  6.4km/h 89% 0in /  0.0mm 0 W/m2
06:27 49.8 °F /  9.9 °C 46.8 °F /  8.2 °C 30.2in /  1022.0hPa West 0.9mph /  1.4km/h 2mph /  3.2km/h 89% 0in /  0.0mm 0 W/m2
06:32 49.6 °F /  9.8 °C 46.6 °F /  8.1 °C 30.2in /  1022.0hPa Calm   4mph /  6.4km/h 89% 0in /  0.0mm 0 W/m2
06:37 49.3 °F /  9.6 °C 46.2 °F /  7.9 °C 30.2in /  1022.0hPa Calm   2mph /  3.2km/h 89% 0in /  0.0mm 0 W/m2
06:42 49.1 °F /  9.5 °C 46.2 °F /  7.9 °C 30.2in /  1022.0hPa West 0.9mph /  1.4km/h 4mph /  6.4km/h 90% 0in /  0.0mm 0 W/m2
06:47 48.9 °F /  9.4 °C 46 °F /  7.8 °C 30.2in /  1022.4hPa West 4mph /  6.4km/h 4mph /  6.4km/h 90% 0in /  0.0mm 0 W/m2
06:53 48.9 °F /  9.4 °C 46 °F /  7.8 °C 30.2in /  1022.4hPa WSW 0.9mph /  1.4km/h 6mph /  9.7km/h 90% 0in /  0.0mm 0 W/m2
06:58 48.7 °F /  9.3 °C 45.9 °F /  7.7 °C 30.2in /  1022.4hPa WSW 2.9mph /  4.7km/h 3mph /  4.8km/h 90% 0in /  0.0mm 0 W/m2
07:03 48.6 °F /  9.2 °C 45.7 °F /  7.6 °C 30.2in /  1022.4hPa WSW 2.9mph /  4.7km/h 6mph /  9.7km/h 90% 0in /  0.0mm 0 W/m2
07:08 48.6 °F /  9.2 °C 45.7 °F /  7.6 °C 30.2in /  1022.4hPa West 2.9mph /  4.7km/h 3mph /  4.8km/h 90% 0in /  0.0mm 0 W/m2
07:13 48.6 °F /  9.2 °C 45.7 °F /  7.6 °C 30.2in /  1022.4hPa West 2mph /  3.2km/h 5mph /  8km/h 90% 0in /  0.0mm 0 W/m2
07:18 48.6 °F /  9.2 °C 45.7 °F /  7.6 °C 30.2in /  1022.4hPa WSW 0.9mph /  1.4km/h 4mph /  6.4km/h 90% 0in /  0.0mm 0 W/m2
07:23 48.4 °F /  9.1 °C 45.5 °F /  7.5 °C 30.2in /  1022.4hPa WSW 2mph /  3.2km/h 5mph /  8km/h 90% 0in /  0.0mm 0 W/m2
07:28 48.4 °F /  9.1 °C 45.5 °F /  7.5 °C 30.2in /  1022.7hPa Calm   3mph /  4.8km/h 90% 0in /  0.0mm 0 W/m2
07:33 48.4 °F /  9.1 °C 45.5 °F /  7.5 °C 30.2in /  1022.7hPa Calm   5mph /  8km/h 90% 0in /  0.0mm 5 W/m2
07:38 48.4 °F /  9.1 °C 45.5 °F /  7.5 °C 30.2in /  1022.7hPa SW 2mph /  3.2km/h 4mph /  6.4km/h 90% 0in /  0.0mm 5 W/m2
07:43 48.6 °F /  9.2 °C 45.7 °F /  7.6 °C 30.2in /  1022.7hPa WSW 2mph /  3.2km/h 3mph /  4.8km/h 90% 0in /  0.0mm 11 W/m2
07:48 48.6 °F /  9.2 °C 45.7 °F /  7.6 °C 30.2in /  1022.7hPa West 2mph /  3.2km/h 3mph /  4.8km/h 90% 0in /  0.0mm 11 W/m2
07:53 48.6 °F /  9.2 °C 45.7 °F /  7.6 °C 30.2in /  1022.7hPa Calm   4mph /  6.4km/h 90% 0in /  0.0mm 11 W/m2
07:58 48.6 °F /  9.2 °C 45.7 °F /  7.6 °C 30.2in /  1022.7hPa Calm   4mph /  6.4km/h 90% 0in /  0.0mm 11 W/m2
08:03 48.6 °F /  9.2 °C 45.7 °F /  7.6 °C 30.2in /  1022.7hPa West 0.9mph /  1.4km/h 2mph /  3.2km/h 90% 0in /  0.0mm 21 W/m2
08:08 48.4 °F /  9.1 °C 45.5 °F /  7.5 °C 30.2in /  1022.7hPa Calm   2mph /  3.2km/h 90% 0in /  0.0mm 23 W/m2
08:18 48.6 °F /  9.2 °C 45.7 °F /  7.6 °C 30.2in /  1022.7hPa Calm   1mph /  1.6km/h 90% 0in /  0.0mm 40 W/m2
08:23 48.6 °F /  9.2 °C 45.7 °F /  7.6 °C 30.2in /  1022.7hPa WNW 2mph /  3.2km/h 3mph /  4.8km/h 90% 0in /  0.0mm 39 W/m2
08:28 48.7 °F /  9.3 °C 45.9 °F /  7.7 °C 30.2in /  1022.7hPa Calm   2mph /  3.2km/h 90% 0in /  0.0mm 37 W/m2
08:33 48.7 °F /  9.3 °C 45.9 °F /  7.7 °C 30.2in /  1022.7hPa Calm   2mph /  3.2km/h 90% 0in /  0.0mm 51 W/m2
08:38 48.9 °F /  9.4 °C 46 °F /  7.8 °C 30.2in /  1022.7hPa Calm   2mph /  3.2km/h 90% 0in /  0.0mm 53 W/m2
08:43 48.9 °F /  9.4 °C 46 °F /  7.8 °C 30.2in /  1023.0hPa Calm   2mph /  3.2km/h 90% 0in /  0.0mm 49 W/m2
08:48 48.9 °F /  9.4 °C 46.4 °F /  8 °C 30.2in /  1023.0hPa NW 0.9mph /  1.4km/h 2mph /  3.2km/h 91% 0in /  0.0mm 60 W/m2
08:53 49.1 °F /  9.5 °C 46.6 °F /  8.1 °C 30.2in /  1023.0hPa Calm   1mph /  1.6km/h 91% 0in /  0.0mm 60 W/m2
08:58 49.3 °F /  9.6 °C 46.8 °F /  8.2 °C 30.2in /  1023.0hPa Calm   1mph /  1.6km/h 91% 0in /  0.0mm 46 W/m2
09:03 49.3 °F /  9.6 °C 46.8 °F /  8.2 °C 30.2in /  1023.0hPa WNW 0.9mph /  1.4km/h 4mph /  6.4km/h 91% 0in /  0.0mm 33 W/m2
09:08 49.3 °F /  9.6 °C 46.8 °F /  8.2 °C 30.2in /  1023.4hPa Calm     91% 0in /  0.0mm 44 W/m2
09:13 49.3 °F /  9.6 °C 46.8 °F /  8.2 °C 30.2in /  1023.4hPa Calm   2mph /  3.2km/h 91% 0in /  0.0mm 46 W/m2
09:18 49.3 °F /  9.6 °C 46.8 °F /  8.2 °C 30.2in /  1023.4hPa SSE 0.9mph /  1.4km/h 2mph /  3.2km/h 91% 0in /  0.0mm 54 W/m2
09:23 49.3 °F /  9.6 °C 46.8 °F /  8.2 °C 30.2in /  1023.4hPa Calm     91% 0in /  0.0mm 69 W/m2
09:28 49.3 °F /  9.6 °C 46.8 °F /  8.2 °C 30.2in /  1023.4hPa Calm     91% 0in /  0.0mm 83 W/m2
09:33 49.5 °F /  9.7 °C 46.9 °F /  8.3 °C 30.2in /  1023.4hPa Calm     91% 0in /  0.0mm 86 W/m2
09:38 49.5 °F /  9.7 °C 46.6 °F /  8.1 °C 30.2in /  1023.4hPa Calm   2mph /  3.2km/h 90% 0in /  0.0mm 83 W/m2
09:43 49.6 °F /  9.8 °C 46.8 °F /  8.2 °C 30.2in /  1023.4hPa Calm   2mph /  3.2km/h 90% 0in /  0.0mm 84 W/m2
09:48 49.6 °F /  9.8 °C 46.8 °F /  8.2 °C 30.2in /  1023.4hPa NW 2mph /  3.2km/h 2mph /  3.2km/h 90% 0in /  0.0mm 81 W/m2
09:53 49.8 °F /  9.9 °C 46.9 °F /  8.3 °C 30.2in /  1023.4hPa Calm   1mph /  1.6km/h 90% 0in /  0.0mm 86 W/m2
09:58 50 °F /  10 °C 47.1 °F /  8.4 °C 30.2in /  1023.4hPa Calm   1mph /  1.6km/h 90% 0in /  0.0mm 63 W/m2
10:03 50.2 °F /  10.1 °C 47.3 °F /  8.5 °C 30.2in /  1023.4hPa NNW 0.9mph /  1.4km/h 2mph /  3.2km/h 90% 0in /  0.0mm 79 W/m2
10:08 50.2 °F /  10.1 °C 47.1 °F /  8.4 °C 30.2in /  1023.4hPa Calm   1mph /  1.6km/h 89% 0in /  0.0mm 97 W/m2
10:13 50.4 °F /  10.2 °C 47.3 °F /  8.5 °C 30.2in /  1023.4hPa NW 2mph /  3.2km/h 3mph /  4.8km/h 89% 0in /  0.0mm 102 W/m2
10:18 50.4 °F /  10.2 °C 46.9 °F /  8.3 °C 30.2in /  1023.4hPa Calm   1mph /  1.6km/h 88% 0in /  0.0mm 107 W/m2
10:23 50.4 °F /  10.2 °C 46.9 °F /  8.3 °C 30.2in /  1023.4hPa NW 2mph /  3.2km/h 2mph /  3.2km/h 88% 0in /  0.0mm 148 W/m2
10:28 50.5 °F /  10.3 °C 47.1 °F /  8.4 °C 30.2in /  1023.4hPa North 2mph /  3.2km/h 2mph /  3.2km/h 88% 0in /  0.0mm 167 W/m2
10:33 50.7 °F /  10.4 °C 47.3 °F /  8.5 °C 30.2in /  1023.4hPa North 0.9mph /  1.4km/h 2mph /  3.2km/h 88% 0in /  0.0mm 192 W/m2
10:38 51.1 °F /  10.6 °C 47.3 °F /  8.5 °C 30.2in /  1023.4hPa NW 0.9mph /  1.4km/h 3mph /  4.8km/h 87% 0in /  0.0mm 192 W/m2
10:43 51.3 °F /  10.7 °C 47.5 °F /  8.6 °C 30.2in /  1023.7hPa WNW 2mph /  3.2km/h 4mph /  6.4km/h 87% 0in /  0.0mm 176 W/m2
10:48 51.3 °F /  10.7 °C 47.3 °F /  8.5 °C 30.2in /  1023.4hPa Calm   2mph /  3.2km/h 86% 0in /  0.0mm 188 W/m2
10:53 51.4 °F /  10.8 °C 47.1 °F /  8.4 °C 30.2in /  1023.4hPa WNW 0.9mph /  1.4km/h 3mph /  4.8km/h 85% 0in /  0.0mm 199 W/m2
10:58 51.6 °F /  10.9 °C 47.3 °F /  8.5 °C 30.2in /  1023.4hPa Calm   1mph /  1.6km/h 85% 0in /  0.0mm 169 W/m2
11:03 51.6 °F /  10.9 °C 46.9 °F /  8.3 °C 30.2in /  1023.4hPa North 0.9mph /  1.4km/h 3mph /  4.8km/h 84% 0in /  0.0mm 162 W/m2
11:08 52 °F /  11.1 °C 46.9 °F /  8.3 °C 30.2in /  1023.4hPa NNW 0.9mph /  1.4km/h 3mph /  4.8km/h 83% 0in /  0.0mm 171 W/m2
11:13 52 °F /  11.1 °C 47.3 °F /  8.5 °C 30.2in /  1023.7hPa Calm   2mph /  3.2km/h 84% 0in /  0.0mm 163 W/m2
11:19 52.2 °F /  11.2 °C 47.1 °F /  8.4 °C 30.2in /  1023.4hPa Calm   2mph /  3.2km/h 83% 0in /  0.0mm 183 W/m2
11:24 52.3 °F /  11.3 °C 47.3 °F /  8.5 °C 30.2in /  1023.4hPa WNW 2mph /  3.2km/h 6mph /  9.7km/h 83% 0in /  0.0mm 181 W/m2
11:29 52.3 °F /  11.3 °C 47.3 °F /  8.5 °C 30.2in /  1023.4hPa NNW 0.9mph /  1.4km/h 3mph /  4.8km/h 83% 0in /  0.0mm 185 W/m2
11:34 52.5 °F /  11.4 °C 47.5 °F /  8.6 °C 30.2in /  1023.4hPa NW 4.9mph /  7.9km/h 7mph /  11.3km/h 83% 0in /  0.0mm 171 W/m2
11:39 52.5 °F /  11.4 °C 47.5 °F /  8.6 °C 30.2in /  1023.4hPa West 2.9mph /  4.7km/h 8mph /  12.9km/h 83% 0in /  0.0mm 162 W/m2
11:44 52.5 °F /  11.4 °C 47.5 °F /  8.6 °C 30.2in /  1023.4hPa WSW 2mph /  3.2km/h 5mph /  8km/h 83% 0in /  0.0mm 151 W/m2
11:49 52.7 °F /  11.5 °C 47.7 °F /  8.7 °C 30.2in /  1023.4hPa NNW 2.9mph /  4.7km/h 5mph /  8km/h 83% 0in /  0.0mm 141 W/m2
11:54 52.7 °F /  11.5 °C 47.7 °F /  8.7 °C 30.2in /  1023.4hPa SSE 2mph /  3.2km/h 2mph /  3.2km/h 83% 0in /  0.0mm 149 W/m2
11:59 52.9 °F /  11.6 °C 47.8 °F /  8.8 °C 30.2in /  1023.4hPa Calm   2mph /  3.2km/h 83% 0in /  0.0mm 141 W/m2
12:04 52.9 °F /  11.6 °C 47.5 °F /  8.6 °C 30.2in /  1023.4hPa West 0.9mph /  1.4km/h 3mph /  4.8km/h 82% 0in /  0.0mm 132 W/m2
12:09 52.9 °F /  11.6 °C 47.5 °F /  8.6 °C 30.2in /  1023.4hPa NW 0.9mph /  1.4km/h 2mph /  3.2km/h 82% 0in /  0.0mm 130 W/m2
12:14 52.9 °F /  11.6 °C 47.3 °F /  8.5 °C 30.2in /  1023.4hPa WNW 2mph /  3.2km/h 4mph /  6.4km/h 81% 0in /  0.0mm 128 W/m2
12:19 52.9 °F /  11.6 °C 47.3 °F /  8.5 °C 30.2in /  1023.4hPa Calm   3mph /  4.8km/h 81% 0in /  0.0mm 144 W/m2
12:24 52.9 °F /  11.6 °C 47.3 °F /  8.5 °C 30.2in /  1023.4hPa Calm   2mph /  3.2km/h 81% 0in /  0.0mm 151 W/m2
12:29 52.9 °F /  11.6 °C 47.3 °F /  8.5 °C 30.2in /  1023.4hPa WNW 0.9mph /  1.4km/h 7mph /  11.3km/h 81% 0in /  0.0mm 160 W/m2
12:34 53.1 °F /  11.7 °C 47.3 °F /  8.5 °C 30.2in /  1023.4hPa NNW 4.9mph /  7.9km/h 5mph /  8km/h 81% 0in /  0.0mm 160 W/m2
12:39 53.1 °F /  11.7 °C 47.3 °F /  8.5 °C 30.2in /  1023.4hPa WNW 2mph /  3.2km/h 5mph /  8km/h 81% 0in /  0.0mm 167 W/m2
12:44 53.1 °F /  11.7 °C 47.3 °F /  8.5 °C 30.2in /  1023.4hPa NW 4mph /  6.4km/h 5mph /  8km/h 81% 0in /  0.0mm 171 W/m2
12:49 53.2 °F /  11.8 °C 47.5 °F /  8.6 °C 30.2in /  1023.4hPa WNW 2.9mph /  4.7km/h 5mph /  8km/h 81% 0in /  0.0mm 188 W/m2
12:54 53.2 °F /  11.8 °C 47.5 °F /  8.6 °C 30.2in /  1023.4hPa NW 2.9mph /  4.7km/h 4mph /  6.4km/h 81% 0in /  0.0mm 193 W/m2
12:59 53.2 °F /  11.8 °C 47.3 °F /  8.5 °C 30.2in /  1023.4hPa WNW 2.9mph /  4.7km/h 5mph /  8km/h 80% 0in /  0.0mm 165 W/m2
13:04 53.4 °F /  11.9 °C 47.5 °F /  8.6 °C 30.2in /  1023.4hPa WNW 2.9mph /  4.7km/h 4mph /  6.4km/h 80% 0in /  0.0mm 144 W/m2
13:09 53.4 °F /  11.9 °C 47.5 °F /  8.6 °C 30.2in /  1023.4hPa WNW 4mph /  6.4km/h 5mph /  8km/h 80% 0in /  0.0mm 139 W/m2
13:14 53.4 °F /  11.9 °C 47.5 °F /  8.6 °C 30.2in /  1023.4hPa West 2.9mph /  4.7km/h 6mph /  9.7km/h 80% 0in /  0.0mm 114 W/m2
13:19 53.4 °F /  11.9 °C 47.5 °F /  8.6 °C 30.2in /  1023.4hPa NW 2mph /  3.2km/h 3mph /  4.8km/h 80% 0in /  0.0mm 167 W/m2
13:24 53.6 °F /  12 °C 47.7 °F /  8.7 °C 30.2in /  1023.4hPa ENE 2mph /  3.2km/h 3mph /  4.8km/h 80% 0in /  0.0mm 148 W/m2
13:29 53.6 °F /  12 °C 47.3 °F /  8.5 °C 30.2in /  1023.4hPa Calm   2mph /  3.2km/h 79% 0in /  0.0mm 174 W/m2
13:34 53.6 °F /  12 °C 47.3 °F /  8.5 °C 30.2in /  1023.0hPa WNW 4mph /  6.4km/h 6mph /  9.7km/h 79% 0in /  0.0mm 171 W/m2
13:39 53.8 °F /  12.1 °C 47.1 °F /  8.4 °C 30.2in /  1023.4hPa WSW 4.9mph /  7.9km/h 11mph /  17.7km/h 78% 0in /  0.0mm 160 W/m2
13:44 53.8 °F /  12.1 °C 47.1 °F /  8.4 °C 30.2in /  1023.0hPa West 2mph /  3.2km/h 8mph /  12.9km/h 78% 0in /  0.0mm 113 W/m2
13:49 53.8 °F /  12.1 °C 47.1 °F /  8.4 °C 30.2in /  1023.0hPa NNW 2mph /  3.2km/h 5mph /  8km/h 78% 0in /  0.0mm 156 W/m2
13:54 54 °F /  12.2 °C 47.3 °F /  8.5 °C 30.2in /  1023.0hPa West 4mph /  6.4km/h 4mph /  6.4km/h 78% 0in /  0.0mm 236 W/m2
13:59 54 °F /  12.2 °C 46.9 °F /  8.3 °C 30.2in /  1023.0hPa WSW 2.9mph /  4.7km/h 9mph /  14.5km/h 77% 0in /  0.0mm 144 W/m2
14:04 54 °F /  12.2 °C 46.6 °F /  8.1 °C 30.2in /  1023.0hPa NNE 2mph /  3.2km/h 7mph /  11.3km/h 76% 0in /  0.0mm 151 W/m2
14:09 54.1 °F /  12.3 °C 46.4 °F /  8 °C 30.2in /  1023.0hPa NNE 2.9mph /  4.7km/h 9mph /  14.5km/h 75% 0in /  0.0mm 98 W/m2
14:14 54.1 °F /  12.3 °C 46 °F /  7.8 °C 30.2in /  1023.0hPa West 0.9mph /  1.4km/h 8mph /  12.9km/h 74% 0in /  0.0mm 81 W/m2
14:19 54 °F /  12.2 °C 46.2 °F /  7.9 °C 30.2in /  1023.0hPa NW 2mph /  3.2km/h 9mph /  14.5km/h 75% 0in /  0.0mm 72 W/m2
14:24 54.1 °F /  12.3 °C 45.7 °F /  7.6 °C 30.2in /  1023.0hPa North 2mph /  3.2km/h 4mph /  6.4km/h 73% 0in /  0.0mm 58 W/m2
14:30 54.1 °F /  12.3 °C 45.7 °F /  7.6 °C 30.2in /  1023.0hPa SW 0.9mph /  1.4km/h 4mph /  6.4km/h 73% 0in /  0.0mm 65 W/m2
14:35 54.1 °F /  12.3 °C 45.3 °F /  7.4 °C 30.2in /  1023.0hPa WSW 0.9mph /  1.4km/h 3mph /  4.8km/h 72% 0in /  0.0mm 76 W/m2
14:40 54.1 °F /  12.3 °C 45.3 °F /  7.4 °C 30.2in /  1023.0hPa WNW 2.9mph /  4.7km/h 5mph /  8km/h 72% 0in /  0.0mm 81 W/m2
14:45 54.1 °F /  12.3 °C 45.3 °F /  7.4 °C 30.2in /  1023.0hPa WNW 2.9mph /  4.7km/h 3mph /  4.8km/h 72% 0in /  0.0mm 97 W/m2
14:50 54.3 °F /  12.4 °C 45.1 °F /  7.3 °C 30.2in /  1023.0hPa West 8.1mph /  13km/h 8mph /  12.9km/h 71% 0in /  0.0mm 93 W/m2
14:55 54.3 °F /  12.4 °C 45.1 °F /  7.3 °C 30.2in /  1023.0hPa East 0.9mph /  1.4km/h 3mph /  4.8km/h 71% 0in /  0.0mm 113 W/m2
15:00 54.3 °F /  12.4 °C 45.1 °F /  7.3 °C 30.2in /  1023.0hPa NW 4.9mph /  7.9km/h 5mph /  8km/h 71% 0in /  0.0mm 118 W/m2
15:05 54.3 °F /  12.4 °C 45.1 °F /  7.3 °C 30.2in /  1022.7hPa West 2.9mph /  4.7km/h 4mph /  6.4km/h 71% 0in /  0.0mm 116 W/m2
15:10 54.3 °F /  12.4 °C 44.8 °F /  7.1 °C 30.2in /  1022.7hPa West 0.9mph /  1.4km/h 2mph /  3.2km/h 70% 0in /  0.0mm 100 W/m2
15:15 54.3 °F /  12.4 °C 45.1 °F /  7.3 °C 30.2in /  1022.7hPa North 2.9mph /  4.7km/h 6mph /  9.7km/h 71% 0in /  0.0mm 121 W/m2
15:20 54.5 °F /  12.5 °C 45.3 °F /  7.4 °C 30.2in /  1022.7hPa WSW 2mph /  3.2km/h 6mph /  9.7km/h 71% 0in /  0.0mm 100 W/m2
15:25 54.3 °F /  12.4 °C 45.1 °F /  7.3 °C 30.2in /  1022.7hPa East 0.9mph /  1.4km/h 2mph /  3.2km/h 71% 0in /  0.0mm 65 W/m2
15:30 54.5 °F /  12.5 °C 45.3 °F /  7.4 °C 30.2in /  1022.7hPa WNW 0.9mph /  1.4km/h 4mph /  6.4km/h 71% 0in /  0.0mm 90 W/m2
15:35 54.5 °F /  12.5 °C 45 °F /  7.2 °C 30.2in /  1022.7hPa Calm   2mph /  3.2km/h 70% 0in /  0.0mm 53 W/m2
15:40 54.5 °F /  12.5 °C 45.3 °F /  7.4 °C 30.2in /  1022.7hPa Calm   4mph /  6.4km/h 71% 0in /  0.0mm 49 W/m2
15:45 54.3 °F /  12.4 °C 44.8 °F /  7.1 °C 30.2in /  1022.7hPa NW 0.9mph /  1.4km/h 3mph /  4.8km/h 70% 0in /  0.0mm 28 W/m2
15:50 54.3 °F /  12.4 °C 44.8 °F /  7.1 °C 30.2in /  1022.7hPa West 0.9mph /  1.4km/h 3mph /  4.8km/h 70% 0in /  0.0mm 19 W/m2
15:55 54.3 °F /  12.4 °C 45.1 °F /  7.3 °C 30.2in /  1022.7hPa NW 2.9mph /  4.7km/h 5mph /  8km/h 71% 0in /  0.0mm 18 W/m2
16:00 54.1 °F /  12.3 °C 45.7 °F /  7.6 °C 30.2in /  1022.7hPa NW 0.9mph /  1.4km/h 3mph /  4.8km/h 73% 0in /  0.0mm 21 W/m2
16:05 54.1 °F /  12.3 °C 45.7 °F /  7.6 °C 30.2in /  1022.7hPa South 2mph /  3.2km/h 2mph /  3.2km/h 73% 0in /  0.0mm 23 W/m2
16:10 54 °F /  12.2 °C 45.1 °F /  7.3 °C 30.2in /  1022.7hPa North 4mph /  6.4km/h 5mph /  8km/h 72% 0in /  0.0mm 21 W/m2
16:15 54 °F /  12.2 °C 45.1 °F /  7.3 °C 30.2in /  1022.7hPa Calm   7mph /  11.3km/h 72% 0in /  0.0mm 19 W/m2
16:20 54 °F /  12.2 °C 45.5 °F /  7.5 °C 30.2in /  1023.0hPa ENE 0.9mph /  1.4km/h 9mph /  14.5km/h 73% 0in /  0.0mm 21 W/m2
16:25 53.6 °F /  12 °C 45.9 °F /  7.7 °C 30.2in /  1023.4hPa SSW 2.9mph /  4.7km/h 7mph /  11.3km/h 75% 0in /  0.0mm 11 W/m2
16:30 52.9 °F /  11.6 °C 46.6 °F /  8.1 °C 30.2in /  1023.0hPa WNW 2.9mph /  4.7km/h 8mph /  12.9km/h 79% 0.01in /  0.2mm 18 W/m2
16:35 52.2 °F /  11.2 °C 46.8 °F /  8.2 °C 30.2in /  1023.4hPa NW 2mph /  3.2km/h 8mph /  12.9km/h 82% 0.01in /  0.2mm 14 W/m2
16:40 51.4 °F /  10.8 °C 46.4 °F /  8 °C 30.2in /  1023.4hPa NW 2.9mph /  4.7km/h 8mph /  12.9km/h 83% 0.01in /  0.2mm 12 W/m2
16:45 51.3 °F /  10.7 °C 46.6 °F /  8.1 °C 30.2in /  1023.4hPa WNW 4.9mph /  7.9km/h 8mph /  12.9km/h 84% 0.02in /  0.5mm 23 W/m2
16:50 51.1 °F /  10.6 °C 47.1 °F /  8.4 °C 30.2in /  1023.4hPa NW 0.9mph /  1.4km/h 3mph /  4.8km/h 86% 0.02in /  0.5mm 11 W/m2
16:55 50.7 °F /  10.4 °C 46.8 °F /  8.2 °C 30.2in /  1023.4hPa NW 2mph /  3.2km/h 4mph /  6.4km/h 86% 0.02in /  0.5mm 5 W/m2
17:00 50.5 °F /  10.3 °C 46.8 °F /  8.2 °C 30.2in /  1023.4hPa WSW 2.9mph /  4.7km/h 6mph /  9.7km/h 87% 0.02in /  0.5mm 9 W/m2
17:05 50.5 °F /  10.3 °C 47.1 °F /  8.4 °C 30.2in /  1023.7hPa West 4mph /  6.4km/h 5mph /  8km/h 88% 0.02in /  0.5mm 18 W/m2
17:10 50.5 °F /  10.3 °C 47.1 °F /  8.4 °C 30.2in /  1023.7hPa West 2mph /  3.2km/h 6mph /  9.7km/h 88% 0.02in /  0.5mm 5 W/m2
17:15 50.4 °F /  10.2 °C 46.9 °F /  8.3 °C 30.2in /  1023.7hPa WSW 8.1mph /  13km/h 10mph /  16.1km/h 88% 0.02in /  0.5mm 0 W/m2
17:20 50 °F /  10 °C 46 °F /  7.8 °C 30.2in /  1023.7hPa NW 8.9mph /  14.3km/h 10mph /  16.1km/h 86% 0.02in /  0.5mm 0 W/m2
17:25 49.8 °F /  9.9 °C 45.5 °F /  7.5 °C 30.2in /  1023.7hPa West 6.9mph /  11.1km/h 9mph /  14.5km/h 85% 0.02in /  0.5mm 0 W/m2
17:30 49.6 °F /  9.8 °C 45 °F /  7.2 °C 30.2in /  1023.7hPa SW 2mph /  3.2km/h 11mph /  17.7km/h 84% 0.01in /  0.2mm 0 W/m2
17:35 49.5 °F /  9.7 °C 44.8 °F /  7.1 °C 30.2in /  1024.0hPa WSW 4mph /  6.4km/h 9mph /  14.5km/h 84% 0.01in /  0.2mm 0 W/m2
17:40 49.5 °F /  9.7 °C 44.8 °F /  7.1 °C 30.2in /  1024.0hPa NW 4mph /  6.4km/h 8mph /  12.9km/h 84% 0.01in /  0.2mm 0 W/m2
17:45 49.3 °F /  9.6 °C 44.6 °F /  7 °C 30.2in /  1024.0hPa WSW 6.9mph /  11.1km/h 9mph /  14.5km/h 84% 0in /  0.0mm 0 W/m2
17:50 48.9 °F /  9.4 °C 44.2 °F /  6.8 °C 30.2in /  1024.0hPa WSW 2mph /  3.2km/h 6mph /  9.7km/h 84% 0in /  0.0mm 0 W/m2
17:55 48.7 °F /  9.3 °C 44.1 °F /  6.7 °C 30.3in /  1024.4hPa West 2.9mph /  4.7km/h 9mph /  14.5km/h 84% 0in /  0.0mm 0 W/m2
18:00 48.6 °F /  9.2 °C 43.9 °F /  6.6 °C 30.3in /  1024.4hPa WNW 0.9mph /  1.4km/h 8mph /  12.9km/h 84% 0in /  0.0mm 0 W/m2
18:05 48.6 °F /  9.2 °C 43.9 °F /  6.6 °C 30.3in /  1024.4hPa SW 2.9mph /  4.7km/h 8mph /  12.9km/h 84% 0in /  0.0mm 0 W/m2
18:10 48.6 °F /  9.2 °C 43.7 °F /  6.5 °C 30.3in /  1024.4hPa West 4mph /  6.4km/h 4mph /  6.4km/h 83% 0in /  0.0mm 0 W/m2
18:15 48.4 °F /  9.1 °C 43.5 °F /  6.4 °C 30.3in /  1024.4hPa West 2.9mph /  4.7km/h 8mph /  12.9km/h 83% 0in /  0.0mm 0 W/m2
18:20 48 °F /  8.9 °C 43.3 °F /  6.3 °C 30.3in /  1024.7hPa Calm   2mph /  3.2km/h 84% 0in /  0.0mm 0 W/m2
18:25 47.7 °F /  8.7 °C 43.3 °F /  6.3 °C 30.3in /  1024.7hPa Calm   4mph /  6.4km/h 85% 0in /  0.0mm 0 W/m2
18:30 47.1 °F /  8.4 °C 43.2 °F /  6.2 °C 30.3in /  1024.7hPa Calm   1mph /  1.6km/h 86% 0in /  0.0mm 0 W/m2
18:35 46.9 °F /  8.3 °C 43 °F /  6.1 °C 30.3in /  1025.1hPa Calm   2mph /  3.2km/h 86% 0in /  0.0mm 0 W/m2
18:40 46.6 °F /  8.1 °C 43 °F /  6.1 °C 30.3in /  1025.1hPa WSW 0.9mph /  1.4km/h 1mph /  1.6km/h 87% 0in /  0.0mm 0 W/m2
18:45 46.2 °F /  7.9 °C 42.8 °F /  6 °C 30.3in /  1025.1hPa WSW 0.9mph /  1.4km/h 2mph /  3.2km/h 88% 0in /  0.0mm 0 W/m2
18:50 46 °F /  7.8 °C 42.6 °F /  5.9 °C 30.3in /  1025.1hPa Calm   3mph /  4.8km/h 88% 0in /  0.0mm 0 W/m2
18:55 46 °F /  7.8 °C 42.6 °F /  5.9 °C 30.3in /  1025.4hPa WNW 0.9mph /  1.4km/h 3mph /  4.8km/h 88% 0in /  0.0mm 0 W/m2
19:00 46 °F /  7.8 °C 42.4 °F /  5.8 °C 30.3in /  1025.1hPa West 0.9mph /  1.4km/h 5mph /  8km/h 87% 0in /  0.0mm 0 W/m2
19:05 46 °F /  7.8 °C 42.4 °F /  5.8 °C 30.3in /  1025.1hPa Calm   2mph /  3.2km/h 87% 0in /  0.0mm 0 W/m2
19:10 46 °F /  7.8 °C 42.4 °F /  5.8 °C 30.3in /  1025.1hPa WSW 0.9mph /  1.4km/h 4mph /  6.4km/h 87% 0in /  0.0mm 0 W/m2
19:15 46.2 °F /  7.9 °C 42.6 °F /  5.9 °C 30.3in /  1025.4hPa WNW 2mph /  3.2km/h 6mph /  9.7km/h 87% 0in /  0.0mm 0 W/m2
19:20 46.4 °F /  8 °C 42.8 °F /  6 °C 30.3in /  1025.4hPa WSW 0.9mph /  1.4km/h 7mph /  11.3km/h 87% 0in /  0.0mm 0 W/m2
19:25 46.6 °F /  8.1 °C 42.6 °F /  5.9 °C 30.3in /  1025.4hPa SW 0.9mph /  1.4km/h 7mph /  11.3km/h 86% 0in /  0.0mm 0 W/m2
19:30 46.6 °F /  8.1 °C 42.6 °F /  5.9 °C 30.3in /  1025.4hPa WNW 0.9mph /  1.4km/h 5mph /  8km/h 86% 0in /  0.0mm 0 W/m2
19:35 46.8 °F /  8.2 °C 42.8 °F /  6 °C 30.3in /  1025.4hPa Calm   7mph /  11.3km/h 86% 0in /  0.0mm 0 W/m2
19:40 46.8 °F /  8.2 °C 42.8 °F /  6 °C 30.3in /  1025.4hPa NW 0.9mph /  1.4km/h 3mph /  4.8km/h 86% 0in /  0.0mm 0 W/m2
19:45 46.6 °F /  8.1 °C 42.6 °F /  5.9 °C 30.3in /  1025.7hPa NW 0.9mph /  1.4km/h 4mph /  6.4km/h 86% 0in /  0.0mm 0 W/m2
19:50 46.6 °F /  8.1 °C 42.6 °F /  5.9 °C 30.3in /  1025.7hPa Calm   1mph /  1.6km/h 86% 0in /  0.0mm 0 W/m2
19:55 46.4 °F /  8 °C 42.4 °F /  5.8 °C 30.3in /  1025.4hPa WNW 0.9mph /  1.4km/h 2mph /  3.2km/h 86% 0in /  0.0mm 0 W/m2
20:00 46.2 °F /  7.9 °C 42.3 °F /  5.7 °C 30.3in /  1025.7hPa NW 2mph /  3.2km/h 2mph /  3.2km/h 86% 0in /  0.0mm 0 W/m2
20:05 46.2 °F /  7.9 °C 42.6 °F /  5.9 °C 30.3in /  1025.7hPa WNW 2.9mph /  4.7km/h 3mph /  4.8km/h 87% 0in /  0.0mm 0 W/m2
20:10 46.2 °F /  7.9 °C 42.6 °F /  5.9 °C 30.3in /  1025.7hPa WNW 2.9mph /  4.7km/h 4mph /  6.4km/h 87% 0in /  0.0mm 0 W/m2
20:15 46 °F /  7.8 °C 42.4 °F /  5.8 °C 30.3in /  1025.7hPa WNW 0.9mph /  1.4km/h 5mph /  8km/h 87% 0in /  0.0mm 0 W/m2
20:20 46 °F /  7.8 °C 42.4 °F /  5.8 °C 30.3in /  1025.7hPa SW 2mph /  3.2km/h 3mph /  4.8km/h 87% 0in /  0.0mm 0 W/m2
20:25 46 °F /  7.8 °C 42.4 °F /  5.8 °C 30.3in /  1025.7hPa ESE 0.9mph /  1.4km/h 5mph /  8km/h 87% 0in /  0.0mm 0 W/m2
20:30 45.9 °F /  7.7 °C 42.3 °F /  5.7 °C 30.3in /  1026.1hPa Calm   3mph /  4.8km/h 87% 0in /  0.0mm 0 W/m2
20:35 45.9 °F /  7.7 °C 42.4 °F /  5.8 °C 30.3in /  1026.1hPa East 2mph /  3.2km/h 5mph /  8km/h 88% 0in /  0.0mm 0 W/m2
20:40 45.7 °F /  7.6 °C 42.1 °F /  5.6 °C 30.3in /  1026.1hPa SW 2.9mph /  4.7km/h 4mph /  6.4km/h 87% 0in /  0.0mm 0 W/m2
20:45 45.7 °F /  7.6 °C 42.1 °F /  5.6 °C 30.3in /  1026.1hPa Calm   5mph /  8km/h 87% 0in /  0.0mm 0 W/m2
20:50 45.7 °F /  7.6 °C 42.1 °F /  5.6 °C 30.3in /  1026.1hPa WSW 0.9mph /  1.4km/h 3mph /  4.8km/h 87% 0in /  0.0mm 0 W/m2
20:55 45.5 °F /  7.5 °C 42.1 °F /  5.6 °C 30.3in /  1026.4hPa WSW 4mph /  6.4km/h 4mph /  6.4km/h 88% 0in /  0.0mm 0 W/m2
21:00 45.3 °F /  7.4 °C 41.9 °F /  5.5 °C 30.3in /  1026.4hPa Calm   1mph /  1.6km/h 88% 0in /  0.0mm 0 W/m2
21:05 45.3 °F /  7.4 °C 41.9 °F /  5.5 °C 30.3in /  1026.4hPa WSW 0.9mph /  1.4km/h 4mph /  6.4km/h 88% 0in /  0.0mm 0 W/m2
21:10 45.3 °F /  7.4 °C 41.9 °F /  5.5 °C 30.3in /  1026.4hPa WSW 2mph /  3.2km/h 2mph /  3.2km/h 88% 0in /  0.0mm 0 W/m2
21:15 45.3 °F /  7.4 °C 41.9 °F /  5.5 °C 30.3in /  1026.4hPa NW 0.9mph /  1.4km/h 3mph /  4.8km/h 88% 0in /  0.0mm 0 W/m2
21:20 45.3 °F /  7.4 °C 41.9 °F /  5.5 °C 30.3in /  1026.4hPa Calm   3mph /  4.8km/h 88% 0in /  0.0mm 0 W/m2
21:25 45.3 °F /  7.4 °C 41.9 °F /  5.5 °C 30.3in /  1026.4hPa ESE 2.9mph /  4.7km/h 7mph /  11.3km/h 88% 0in /  0.0mm 0 W/m2
21:30 45.1 °F /  7.3 °C 41.7 °F /  5.4 °C 30.3in /  1026.4hPa SW 2mph /  3.2km/h 3mph /  4.8km/h 88% 0in /  0.0mm 0 W/m2
21:35 45.1 °F /  7.3 °C 41.7 °F /  5.4 °C 30.3in /  1026.8hPa WSW 6mph /  9.7km/h 7mph /  11.3km/h 88% 0in /  0.0mm 0 W/m2
21:40 45 °F /  7.2 °C 41.5 °F /  5.3 °C 30.3in /  1026.8hPa West 2.9mph /  4.7km/h 3mph /  4.8km/h 88% 0in /  0.0mm 0 W/m2
21:45 45 °F /  7.2 °C 41.5 °F /  5.3 °C 30.3in /  1026.8hPa West 2.9mph /  4.7km/h 7mph /  11.3km/h 88% 0in /  0.0mm 0 W/m2
21:50 44.8 °F /  7.1 °C 41.4 °F /  5.2 °C 30.3in /  1026.8hPa WNW 2.9mph /  4.7km/h 3mph /  4.8km/h 88% 0in /  0.0mm 0 W/m2
21:55 44.8 °F /  7.1 °C 41.4 °F /  5.2 °C 30.3in /  1026.8hPa West 0.9mph /  1.4km/h 3mph /  4.8km/h 88% 0in /  0.0mm 0 W/m2
22:00 44.6 °F /  7 °C 41.2 °F /  5.1 °C 30.3in /  1026.8hPa WNW 0.9mph /  1.4km/h 3mph /  4.8km/h 88% 0in /  0.0mm 0 W/m2
22:05 44.4 °F /  6.9 °C 41.2 °F /  5.1 °C 30.3in /  1026.8hPa WNW 0.9mph /  1.4km/h 5mph /  8km/h 88% 0in /  0.0mm 0 W/m2
22:10 44.4 °F /  6.9 °C 41.2 °F /  5.1 °C 30.3in /  1026.8hPa WSW 4mph /  6.4km/h 7mph /  11.3km/h 88% 0in /  0.0mm 0 W/m2
22:16 44.4 °F /  6.9 °C 40.8 °F /  4.9 °C 30.3in /  1026.8hPa WNW 2.9mph /  4.7km/h 7mph /  11.3km/h 87% 0in /  0.0mm 0 W/m2
22:21 44.4 °F /  6.9 °C 40.8 °F /  4.9 °C 30.3in /  1026.8hPa West 6mph /  9.7km/h 6mph /  9.7km/h 87% 0in /  0.0mm 0 W/m2
22:26 44.2 °F /  6.8 °C 40.6 °F /  4.8 °C 30.3in /  1026.8hPa West 2.9mph /  4.7km/h 7mph /  11.3km/h 87% 0in /  0.0mm 0 W/m2
22:31 44.2 °F /  6.8 °C 40.6 °F /  4.8 °C 30.3in /  1026.8hPa West 4mph /  6.4km/h 4mph /  6.4km/h 87% 0in /  0.0mm 0 W/m2
22:36 44.1 °F /  6.7 °C 40.5 °F /  4.7 °C 30.3in /  1026.8hPa WSW 4.9mph /  7.9km/h 8mph /  12.9km/h 87% 0in /  0.0mm 0 W/m2
22:41 44.1 °F /  6.7 °C 40.5 °F /  4.7 °C 30.3in /  1026.8hPa SW 2.9mph /  4.7km/h 8mph /  12.9km/h 87% 0in /  0.0mm 0 W/m2
22:46 44.1 °F /  6.7 °C 40.5 °F /  4.7 °C 30.3in /  1026.8hPa WNW 4mph /  6.4km/h 4mph /  6.4km/h 87% 0in /  0.0mm 0 W/m2
22:51 44.1 °F /  6.7 °C 40.5 °F /  4.7 °C 30.3in /  1026.8hPa WSW 2.9mph /  4.7km/h 8mph /  12.9km/h 87% 0in /  0.0mm 0 W/m2
22:56 44.1 °F /  6.7 °C 40.5 °F /  4.7 °C 30.3in /  1026.8hPa West 6mph /  9.7km/h 9mph /  14.5km/h 87% 0in /  0.0mm 0 W/m2
23:01 44.1 °F /  6.7 °C 40.1 °F /  4.5 °C 30.3in /  1026.8hPa West 6mph /  9.7km/h 8mph /  12.9km/h 86% 0in /  0.0mm 0 W/m2
23:06 44.1 °F /  6.7 °C 40.1 °F /  4.5 °C 30.3in /  1026.8hPa West 4mph /  6.4km/h 9mph /  14.5km/h 86% 0in /  0.0mm 0 W/m2
23:11 44.1 °F /  6.7 °C 40.1 °F /  4.5 °C 30.3in /  1026.8hPa WSW 6.9mph /  11.1km/h 9mph /  14.5km/h 86% 0in /  0.0mm 0 W/m2
23:16 44.1 °F /  6.7 °C 40.1 °F /  4.5 °C 30.3in /  1027.1hPa West 6.9mph /  11.1km/h 12mph /  19.3km/h 86% 0in /  0.0mm 0 W/m2
23:21 44.1 °F /  6.7 °C 40.1 °F /  4.5 °C 30.3in /  1026.8hPa West 2.9mph /  4.7km/h 9mph /  14.5km/h 86% 0in /  0.0mm 0 W/m2
23:26 44.1 °F /  6.7 °C 40.1 °F /  4.5 °C 30.3in /  1027.1hPa NW 2.9mph /  4.7km/h 9mph /  14.5km/h 86% 0in /  0.0mm 0 W/m2
23:31 43.9 °F /  6.6 °C 39.9 °F /  4.4 °C 30.3in /  1027.1hPa West 8.1mph /  13km/h 12mph /  19.3km/h 86% 0in /  0.0mm 0 W/m2
23:36 43.9 °F /  6.6 °C 39.7 °F /  4.3 °C 30.3in /  1027.1hPa WSW 6.9mph /  11.1km/h 10mph /  16.1km/h 85% 0in /  0.0mm 0 W/m2
23:41 43.9 °F /  6.6 °C 39.7 °F /  4.3 °C 30.3in /  1027.1hPa WNW 2.9mph /  4.7km/h 12mph /  19.3km/h 85% 0in /  0.0mm 0 W/m2
23:46 43.9 °F /  6.6 °C 39.7 °F /  4.3 °C 30.3in /  1027.1hPa West 2.9mph /  4.7km/h 9mph /  14.5km/h 85% 0in /  0.0mm 0 W/m2
23:51 43.9 °F /  6.6 °C 39.7 °F /  4.3 °C 30.3in /  1027.4hPa WSW 4mph /  6.4km/h 7mph /  11.3km/h 85% 0in /  0.0mm 0 W/m2
23:56 43.7 °F /  6.5 °C 39.6 °F /  4.2 °C 30.3in /  1027.4hPa West 2mph /  3.2km/h 9mph /  14.5km/h 85% 0in /  0.0mm 0 W/m2
Juneau County Weather
Compliments of Weather Underground - 4 mb